This is the latest recevied weather packets stored in our database for station/object YO8SDE-8. If no packets are shown the sender has not sent any weather packets the latest 10 day(s).
| Time | Temp. | Humidity | Pressure | Rain* | Wind** | Luminosity | Snow |
|---|---|---|---|---|---|---|---|
| 1777737964 | 17.78° C | 37% | 1011.5 hPa | 0 mm | - | - | - |
| 1777737664 | 17.22° C | 40% | 1011.4 hPa | 0 mm | - | - | - |
| 1777737364 | 15.56° C | 41% | 1011.5 hPa | 0 mm | - | - | - |
| 1777737064 | 14.44° C | 40% | 1011.5 hPa | 0 mm | - | - | - |
| 1777736764 | 14.44° C | 39% | 1011.5 hPa | 0 mm | - | - | - |
| 1777736464 | 14.44° C | 38% | 1011.7 hPa | 0 mm | - | - | - |
| 1777736164 | 15° C | 37% | 1011.8 hPa | 0 mm | - | - | - |
| 1777735864 | 15.56° C | 36% | 1011.7 hPa | 0 mm | - | - | - |
| 1777735564 | 16.67° C | 35% | 1011.6 hPa | 0 mm | - | - | - |
| 1777735264 | 17.78° C | 34% | 1011.6 hPa | 0 mm | - | - | - |
| 1777734964 | 18.33° C | 33% | 1011.6 hPa | 0 mm | - | - | - |
| 1777734664 | 19.44° C | 32% | 1011.6 hPa | 0 mm | - | - | - |
| 1777734364 | 20.56° C | 31% | 1011.7 hPa | 0 mm | - | - | - |
| 1777734064 | 20.56° C | 32% | 1011.7 hPa | 0 mm | - | - | - |
| 1777733764 | 20.56° C | 33% | 1011.7 hPa | 0 mm | - | - | - |
| 1777733464 | 19.44° C | 35% | 1011.7 hPa | 0 mm | - | - | - |
| 1777733164 | 17.78° C | 37% | 1011.8 hPa | 0 mm | - | - | - |
| 1777732864 | 16.11° C | 38% | 1011.8 hPa | 0 mm | - | - | - |
| 1777732564 | 15.56° C | 36% | 1011.8 hPa | 0 mm | - | - | - |
| 1777732264 | 16.67° C | 35% | 1011.8 hPa | 0 mm | - | - | - |
| 1777731964 | 17.78° C | 34% | 1011.8 hPa | 0 mm | - | - | - |
| 1777731664 | 18.89° C | 32% | 1011.8 hPa | 0 mm | - | - | - |
| 1777731364 | 20° C | 32% | 1011.9 hPa | 0 mm | - | - | - |
| 1777731064 | 21.11° C | 31% | 1011.9 hPa | 0 mm | - | - | - |
| 1777730764 | 22.22° C | 30% | 1011.9 hPa | 0 mm | - | - | - |
* Rain latest hour (hover to see other rain measurements)
** Current wind speed in m/s (hover to see current wind gust speed)